Calumet, OK (73014)

8:11 PM CDT on August 28, 2014 (GMT -0500)
El Reno | Change Station
CLOSE
Current Station
Airport
Location: El Reno,
Elevation: 1417 ft
Nearby Weather Stations

Elev 1417 ft 35.47 °N, 98.01 °W | Updated 36 minutes ago

Clear
Clear
72 °F
Feels Like 72 °F
N
10
Wind Variable Wind from SSE

Today
High -- | Low -- °F
--% Chance of Precip.
Yesterday
High -- | Low -- °F
Precip. -- in
7:01 AM 8:05 PM
Waxing Crescent, 11% visible
Pressure 29.89 in
Visibility 10.0 miles
Clouds Clear
Dew Point 64 °F
Humidity 78%
Rainfall 0.01 in
Snow Depth Not available.
UV 0 out of 12
Pollen 10.20 out of 12
Air Quality Not available.
Flu Activity Not available.
METAR KRQO 290035Z AUTO 16009KT 10SM CLR 22/18 A2989 RMK AO2 LTG DSNT N SE AND S

More Conditions Fewer Conditions

Pressure 29.89 in
Visibility 10.0 miles
Clouds Clear
Dew Point 64 °F
Humidity 78%
Rainfall 0.01 in
Snow Depth Not available.
UV 0 out of 12
Pollen 10.20 out of 12
Air Quality Not available.
Flu Activity Not available.
METAR KRQO 290035Z AUTO 16009KT 10SM CLR 22/18 A2989 RMK AO2 LTG DSNT N SE AND S

More Conditions Fewer Conditions

10-Day Weather Forecast

Almanac

Astronomy

Aug. 28, 2014 Rise Set
Actual Time 7:01 AM CDT 8:05 PM CDT
Civil Twilight 6:35 AM CDT 8:31 PM CDT
Nautical Twilight 6:04 AM CDT 9:02 PM CDT
Astronomical Twilight 5:32 AM CDT 9:34 PM CDT
Moon 9:48 AM CDT (8/28) 9:38 PM CDT (8/28)
Length of Visible Light 13h 55m
Length of Day
13h 03m
Tomorrow will be 2m 8s shorter.
Waxing Crescent, 11% of the Moon is Illuminated
Today
Waxing Crescent
Sep 2
First Quarter
Sep 8
Full
Sep 15
Last Quarter
Sep 24
New

Today's Extremes

State Highs State Lows

Community

WunderPhotos

Upload Photos

1,748,126 photos uploaded!

Nearby

Air Quality

  Air Quality AQ Index Pollutant
Yesterday Moderate
PM2.5
Yesterday Good
OZONE
Thursday Good
OZONE
Thursday Good
PM2.5
Friday Good
OZONE
Friday Good
PM2.5
Saturday Good
OZONE
Saturday Good
PM2.5
Sunday Good
OZONE
Sunday Good
PM2.5

Snow Depth

Station Depth Elevation
No new snow has been reported.

Earthquake Activity

City Distance Mag. Time & Date
Stillwater, Oklahoma 63 miles 3.1 10:44 AM CDT
2014-08-27
Anthony, Kansas 101 miles 2.8 10:11 AM CDT
2014-08-27
Guthrie, Oklahoma 44 miles 3.2 11:05 AM CDT
2014-08-26
Harrah, Oklahoma 57 miles 2.5 8:53 AM CDT
2014-08-26
Minimum magnitude displayed is 2.5.

Coastal Water Temperatures

Place Temperature
No Stations Reporting

Nearby Weather Stations